Time;durP1;ratioP1;P1;durP2;ratioP2;P2;SDS_P1;SDS_P2;PMS_P1;PMS_P2;Temp;Humidity;BMP_temperature;BMP_pressure;BME280_temperature;BME280_humidity;BME280_pressure;Samples;Min_cycle;Max_cycle;Signal;HPM_P1;HPM_P2
2022/04/29 00:00:14;;;;;;;1.50;1.20;;;10.80;93.80;;;;;;5066173;28;20489;-77
2022/04/29 00:02:42;;;;;;;1.50;1.20;;;10.70;93.50;;;;;;5059492;28;20972;-77
2022/04/29 00:05:10;;;;;;;1.50;1.20;;;10.70;93.20;;;;;;5064528;28;20473;-77
2022/04/29 00:07:38;;;;;;;1.40;1.03;;;10.70;94.30;;;;;;5060561;28;20468;-77
2022/04/29 00:10:06;;;;;;;1.50;1.10;;;10.70;93.80;;;;;;5067630;28;20478;-77
2022/04/29 00:12:33;;;;;;;1.47;1.10;;;10.70;94.30;;;;;;5061731;28;20489;-77
2022/04/29 00:15:00;;;;;;;1.50;1.00;;;10.70;94.10;;;;;;5062318;28;20486;-77
2022/04/29 00:17:27;;;;;;;1.50;1.20;;;10.70;94.60;;;;;;5063281;28;20461;-77
2022/04/29 00:19:55;;;;;;;1.50;1.10;;;10.70;95.40;;;;;;5056675;28;20993;-77
2022/04/29 00:22:22;;;;;;;1.47;1.10;;;10.60;95.80;;;;;;5060598;28;20457;-77
2022/04/29 00:24:49;;;;;;;1.50;1.20;;;10.60;95.40;;;;;;5062876;28;20940;-77
2022/04/29 00:27:16;;;;;;;1.50;1.20;;;10.60;95.70;;;;;;5061227;28;20472;-77
2022/04/29 00:29:43;;;;;;;1.47;1.10;;;10.60;95.60;;;;;;5061000;28;20481;-77
2022/04/29 00:32:10;;;;;;;1.50;1.10;;;10.60;96.80;;;;;;5064439;28;20509;-77
2022/04/29 00:34:36;;;;;;;1.47;1.10;;;10.50;96.40;;;;;;5061912;28;20461;-77
2022/04/29 00:37:05;;;;;;;1.50;1.10;;;10.50;95.90;;;;;;5065809;28;20843;-77
2022/04/29 00:39:32;;;;;;;1.50;1.20;;;10.50;96.70;;;;;;5057407;28;20502;-77
2022/04/29 00:41:59;;;;;;;1.43;1.10;;;10.40;96.40;;;;;;5059920;28;20465;-77
2022/04/29 00:44:26;;;;;;;1.43;1.10;;;10.40;96.70;;;;;;5064768;28;20453;-77
2022/04/29 00:46:53;;;;;;;1.50;1.07;;;10.40;96.00;;;;;;5066987;28;20457;-77
2022/04/29 00:49:22;;;;;;;1.47;1.10;;;10.40;96.90;;;;;;5062368;28;20478;-77
2022/04/29 00:51:51;;;;;;;1.50;1.10;;;10.30;96.80;;;;;;5063017;28;20461;-76
2022/04/29 00:54:25;;;;;;;1.50;1.20;;;10.30;96.90;;;;;;5062538;28;20498;-77
2022/04/29 00:56:54;;;;;;;1.50;1.10;;;10.30;96.60;;;;;;5060747;28;20469;-77
2022/04/29 00:59:26;;;;;;;1.47;1.10;;;10.30;96.40;;;;;;5062750;28;20478;-77
2022/04/29 01:01:53;;;;;;;1.47;1.10;;;10.30;96.90;;;;;;5061648;28;20469;-77
2022/04/29 01:04:25;;;;;;;1.50;1.10;;;10.30;97.10;;;;;;5065077;28;20458;-77
2022/04/29 01:06:52;;;;;;;1.50;1.10;;;10.30;96.50;;;;;;5063156;28;20469;-77
2022/04/29 01:09:19;;;;;;;1.47;1.10;;;10.20;97.80;;;;;;5066112;28;20477;-77
2022/04/29 01:11:47;;;;;;;1.50;1.17;;;10.20;96.90;;;;;;5060840;28;20466;-77
2022/04/29 01:14:14;;;;;;;1.50;1.20;;;10.20;97.60;;;;;;5065142;28;20525;-77
2022/04/29 01:16:41;;;;;;;1.60;1.50;;;10.20;97.10;;;;;;5064597;28;20470;-77
2022/04/29 01:19:08;;;;;;;1.50;1.20;;;10.10;97.10;;;;;;5057781;28;20477;-77
2022/04/29 01:21:35;;;;;;;1.50;1.10;;;10.20;97.60;;;;;;5057859;28;20807;-77
2022/04/29 01:24:03;;;;;;;1.47;1.10;;;10.10;97.50;;;;;;5067244;28;20461;-77
2022/04/29 01:26:30;;;;;;;1.50;1.10;;;10.10;97.70;;;;;;5067130;28;20465;-77
2022/04/29 01:28:58;;;;;;;1.50;1.17;;;10.10;98.00;;;;;;5070696;28;20567;-77
2022/04/29 01:31:27;;;;;;;1.47;1.10;;;10.10;97.40;;;;;;5063788;28;20468;-77
2022/04/29 01:33:57;;;;;;;1.50;1.20;;;10.10;97.20;;;;;;5069806;28;20507;-77
2022/04/29 01:36:23;;;;;;;1.50;1.20;;;10.10;97.50;;;;;;5065108;28;20472;-77
2022/04/29 01:38:50;;;;;;;1.50;1.20;;;10.10;97.10;;;;;;5072165;28;20488;-77
2022/04/29 01:41:18;;;;;;;1.47;1.20;;;10.00;97.90;;;;;;5070759;28;20464;-77
2022/04/29 01:43:46;;;;;;;1.50;1.10;;;10.00;97.70;;;;;;5072073;28;20472;-77
2022/04/29 01:46:13;;;;;;;1.43;1.00;;;10.00;98.20;;;;;;5067965;28;20906;-77
2022/04/29 01:48:39;;;;;;;1.50;1.10;;;10.00;98.20;;;;;;5062901;28;20483;-76
2022/04/29 01:51:06;;;;;;;1.47;1.10;;;10.00;98.20;;;;;;5053578;28;20469;-77
2022/04/29 01:53:33;;;;;;;1.47;1.13;;;10.00;98.20;;;;;;5056311;28;20522;-77
2022/04/29 01:56:00;;;;;;;1.50;1.20;;;10.00;98.20;;;;;;5060953;28;20469;-77
2022/04/29 01:58:28;;;;;;;1.40;1.10;;;10.00;98.20;;;;;;5068367;28;20465;-77
2022/04/29 02:00:57;;;;;;;1.50;1.10;;;10.00;98.20;;;;;;5070416;28;20960;-76
2022/04/29 02:03:27;;;;;;;1.50;1.20;;;10.00;98.20;;;;;;5067994;28;20454;-77
2022/04/29 02:05:54;;;;;;;1.47;1.10;;;10.00;98.20;;;;;;5066894;28;20457;-77
2022/04/29 02:08:21;;;;;;;1.47;1.10;;;10.00;98.20;;;;;;5066492;28;20458;-77
2022/04/29 02:10:47;;;;;;;1.43;1.10;;;10.00;98.00;;;;;;5064144;28;20831;-77
2022/04/29 02:13:14;;;;;;;1.47;1.10;;;10.00;98.00;;;;;;5068220;28;20492;-77
2022/04/29 02:15:43;;;;;;;1.40;1.10;;;10.00;98.20;;;;;;5066060;28;20465;-77
2022/04/29 02:18:10;;;;;;;1.50;1.20;;;10.00;98.20;;;;;;5068837;28;20466;-76
2022/04/29 02:20:37;;;;;;;1.47;1.10;;;10.00;98.20;;;;;;5065880;28;20462;-76
2022/04/29 02:23:04;;;;;;;1.47;1.10;;;10.00;98.20;;;;;;5066707;28;20464;-76
2022/04/29 02:25:31;;;;;;;1.50;1.20;;;10.00;98.20;;;;;;5070179;28;20461;-76
2022/04/29 02:27:57;;;;;;;1.43;1.10;;;10.00;98.20;;;;;;5069955;28;20473;-76
2022/04/29 02:30:24;;;;;;;1.50;1.20;;;9.90;97.90;;;;;;5069885;28;20488;-77
2022/04/29 02:32:52;;;;;;;1.50;1.20;;;9.90;98.20;;;;;;5062018;28;20458;-76
2022/04/29 02:35:19;;;;;;;1.50;1.10;;;9.90;98.20;;;;;;5068924;28;20860;-76
2022/04/29 02:37:45;;;;;;;1.50;1.20;;;9.90;98.10;;;;;;5062743;28;20466;-76
2022/04/29 02:40:13;;;;;;;1.50;1.10;;;9.90;98.20;;;;;;5066117;28;20485;-76
2022/04/29 02:42:39;;;;;;;1.87;1.67;;;9.80;98.20;;;;;;5064942;28;20955;-76
2022/04/29 02:45:07;;;;;;;1.43;1.10;;;9.80;98.20;;;;;;5064174;28;20460;-76
2022/04/29 02:47:34;;;;;;;1.47;1.10;;;9.80;98.20;;;;;;5066836;28;20863;-77
2022/04/29 02:50:02;;;;;;;1.50;1.10;;;9.80;98.20;;;;;;5065349;28;20477;-77
2022/04/29 02:52:29;;;;;;;1.50;1.20;;;9.80;98.20;;;;;;5063941;28;20972;-76
2022/04/29 02:54:55;;;;;;;1.50;1.30;;;9.80;98.20;;;;;;5066186;28;20492;-76
2022/04/29 02:57:22;;;;;;;1.50;1.10;;;9.80;98.20;;;;;;5062062;28;20472;-77
2022/04/29 02:59:49;;;;;;;1.43;1.10;;;9.80;98.20;;;;;;5091998;23;20485;-80
2022/04/29 03:02:16;;;;;;;1.47;1.10;;;9.80;98.20;;;;;;5076486;28;20454;-78
2022/04/29 03:04:44;;;;;;;1.50;1.30;;;9.70;98.20;;;;;;5076166;28;20450;-78
2022/04/29 03:07:13;;;;;;;1.50;1.20;;;9.70;98.20;;;;;;5079581;28;20449;-78
2022/04/29 03:09:40;;;;;;;1.47;1.10;;;9.70;98.20;;;;;;5081397;28;20839;-78
2022/04/29 03:12:12;;;;;;;1.40;1.10;;;9.70;98.20;;;;;;5089751;28;20485;-79
2022/04/29 03:14:39;;;;;;;1.50;1.20;;;9.70;98.20;;;;;;5089348;28;20569;-77
2022/04/29 03:17:06;;;;;;;1.50;1.30;;;9.70;98.20;;;;;;5101329;28;20471;-79
2022/04/29 03:19:33;;;;;;;1.50;1.10;;;9.70;98.20;;;;;;5104606;28;20465;-78
2022/04/29 03:21:59;;;;;;;1.50;1.10;;;9.70;98.20;;;;;;5106568;28;20466;-79
2022/04/29 03:24:28;;;;;;;1.50;1.20;;;9.70;98.20;;;;;;5111659;28;20822;-78
2022/04/29 03:26:56;;;;;;;1.50;1.10;;;9.70;98.20;;;;;;5092173;28;20465;-79
2022/04/29 03:29:23;;;;;;;1.43;1.20;;;9.70;98.20;;;;;;5099198;28;20844;-78
2022/04/29 03:31:50;;;;;;;1.47;1.10;;;9.70;98.20;;;;;;5095159;28;20473;-79
2022/04/29 03:34:18;;;;;;;1.50;1.13;;;9.70;98.20;;;;;;5092367;28;21171;-77
2022/04/29 03:36:45;;;;;;;1.50;1.20;;;9.70;98.20;;;;;;5095682;28;20491;-79
2022/04/29 03:39:12;;;;;;;1.50;1.10;;;9.70;98.20;;;;;;5097628;28;20846;-79
2022/04/29 03:41:41;;;;;;;1.50;1.20;;;9.70;98.20;;;;;;5101156;28;20511;-81
2022/04/29 03:44:08;;;;;;;1.47;1.20;;;9.70;98.20;;;;;;5098354;28;20555;-78
2022/04/29 03:46:35;;;;;;;1.50;1.20;;;9.70;98.20;;;;;;5096762;28;20514;-82
2022/04/29 03:51:55;;;;;;;1.50;1.10;;;9.70;98.20;;;;;;5054068;28;20463;-80
2022/04/29 03:54:22;;;;;;;1.50;1.20;;;9.70;98.20;;;;;;5102128;28;20508;-82
2022/04/29 03:56:52;;;;;;;1.50;1.20;;;9.70;98.20;;;;;;5096893;28;20464;-78
2022/04/29 03:59:19;;;;;;;1.50;1.30;;;9.70;98.20;;;;;;5101785;28;20456;-83
2022/04/29 04:01:49;;;;;;;1.40;1.10;;;9.70;98.20;;;;;;5100230;28;20467;-79
2022/04/29 04:04:16;;;;;;;1.47;1.10;;;9.70;98.20;;;;;;5084486;28;20549;-82
2022/04/29 04:06:52;;;;;;;1.50;1.10;;;9.60;98.20;;;;;;5098139;28;20452;-80
2022/04/29 04:09:21;;;;;;;1.50;1.13;;;9.60;98.20;;;;;;5095511;28;20524;-81
2022/04/29 04:11:49;;;;;;;1.47;1.10;;;9.60;98.20;;;;;;5092599;28;20458;-78
2022/04/29 04:14:18;;;;;;;1.50;1.20;;;9.60;98.20;;;;;;5090655;28;20562;-78
2022/04/29 04:16:45;;;;;;;1.47;1.10;;;9.60;98.20;;;;;;5096424;28;20465;-78
2022/04/29 04:19:12;;;;;;;1.47;1.10;;;9.60;98.20;;;;;;5105408;28;20491;-82
2022/04/29 04:21:39;;;;;;;1.50;1.10;;;9.60;98.20;;;;;;5099769;28;20480;-83
2022/04/29 04:24:08;;;;;;;1.47;1.10;;;9.50;98.20;;;;;;5096537;28;20529;-79
2022/04/29 04:26:35;;;;;;;1.50;1.27;;;9.50;98.20;;;;;;5098157;28;20456;-82
2022/04/29 04:29:02;;;;;;;1.50;1.27;;;9.50;98.20;;;;;;5092787;28;20472;-81
2022/04/29 04:31:31;;;;;;;1.47;1.20;;;9.50;98.20;;;;;;5092595;28;20481;-78
2022/04/29 04:33:58;;;;;;;1.47;1.10;;;9.50;98.20;;;;;;5100660;28;20476;-79
2022/04/29 04:36:25;;;;;;;1.50;1.20;;;9.50;98.20;;;;;;5095325;28;20471;-80
2022/04/29 04:38:52;;;;;;;1.50;1.20;;;9.50;98.20;;;;;;5092071;28;21020;-78
2022/04/29 04:41:19;;;;;;;1.50;1.20;;;9.50;98.20;;;;;;5102447;28;20476;-80
2022/04/29 04:43:46;;;;;;;1.50;1.17;;;9.50;98.20;;;;;;5100885;28;20479;-78
2022/04/29 04:46:13;;;;;;;1.47;1.10;;;9.50;98.20;;;;;;5105103;28;20484;-79
2022/04/29 04:48:43;;;;;;;1.50;1.20;;;9.50;98.20;;;;;;5091967;28;20500;-79
2022/04/29 04:51:10;;;;;;;1.47;1.20;;;9.50;98.20;;;;;;5102804;28;20503;-82
2022/04/29 04:53:37;;;;;;;1.50;1.20;;;9.50;98.20;;;;;;5091641;28;20460;-79
2022/04/29 04:56:04;;;;;;;1.50;1.20;;;9.60;98.20;;;;;;5092867;28;20463;-78
2022/04/29 04:58:33;;;;;;;1.47;1.10;;;9.60;98.20;;;;;;5091042;28;20466;-80
2022/04/29 05:01:00;;;;;;;1.40;1.10;;;9.60;98.20;;;;;;5095621;28;20484;-79
2022/04/29 05:03:27;;;;;;;1.50;1.20;;;9.70;98.20;;;;;;5097656;28;20566;-78
2022/04/29 05:05:56;;;;;;;1.50;1.30;;;9.70;98.20;;;;;;5103423;28;20456;-78
2022/04/29 05:08:24;;;;;;;1.50;1.20;;;9.70;98.20;;;;;;5104390;28;20524;-83
2022/04/29 05:10:51;;;;;;;1.50;1.10;;;9.70;98.20;;;;;;5100505;28;20492;-83
2022/04/29 05:13:17;;;;;;;1.50;1.10;;;9.70;98.20;;;;;;5101930;28;20464;-79
2022/04/29 05:15:48;;;;;;;1.50;1.10;;;9.70;98.20;;;;;;5104875;28;20499;-86
2022/04/29 05:18:16;;;;;;;1.50;1.13;;;9.70;98.20;;;;;;5102002;28;20460;-79
2022/04/29 05:20:44;;;;;;;1.50;1.20;;;9.70;98.20;;;;;;5106486;28;20486;-83
2022/04/29 05:23:12;;;;;;;1.47;1.13;;;9.80;98.20;;;;;;5096175;28;20453;-78
2022/04/29 05:25:40;;;;;;;1.50;1.10;;;9.80;98.20;;;;;;5101695;28;20448;-81
2022/04/29 05:28:08;;;;;;;1.50;1.20;;;9.90;98.20;;;;;;5099637;28;20457;-79
2022/04/29 05:30:35;;;;;;;1.50;1.10;;;9.90;98.20;;;;;;5097969;28;20652;-80
2022/04/29 05:33:03;;;;;;;1.43;1.00;;;10.00;98.20;;;;;;5098610;28;20463;-81
2022/04/29 05:35:30;;;;;;;1.50;1.20;;;10.10;98.20;;;;;;5110719;28;20488;-78
2022/04/29 05:37:57;;;;;;;1.50;1.13;;;10.10;98.20;;;;;;5100192;28;20460;-79
2022/04/29 05:43:10;;;;;;;1.50;1.23;;;10.30;98.20;;;;;;5088658;28;20491;-80
2022/04/29 05:45:37;;;;;;;1.50;1.10;;;10.30;98.20;;;;;;5094069;28;20512;-79
2022/04/29 05:48:04;;;;;;;1.50;1.10;;;10.40;98.20;;;;;;5089497;28;20527;-81
2022/04/29 05:50:31;;;;;;;1.47;1.10;;;10.50;98.20;;;;;;5111851;28;21023;-81
2022/04/29 05:52:58;;;;;;;1.47;1.10;;;10.60;98.20;;;;;;5095917;28;20544;-79
2022/04/29 05:55:27;;;;;;;1.50;1.10;;;10.70;98.20;;;;;;5100808;28;20977;-79
2022/04/29 05:57:54;;;;;;;1.40;1.10;;;10.70;98.20;;;;;;5107062;28;20484;-78
2022/04/29 06:00:21;;;;;;;1.50;1.10;;;10.90;98.20;;;;;;5098252;28;20527;-78
2022/04/29 06:02:48;;;;;;;1.50;1.10;;;11.00;98.20;;;;;;5095449;28;20669;-79
2022/04/29 06:05:15;;;;;;;1.43;1.10;;;11.10;98.20;;;;;;5102193;28;20599;-80
2022/04/29 06:07:42;;;;;;;1.47;1.00;;;11.20;98.20;;;;;;5098166;28;20551;-78
2022/04/29 06:10:09;;;;;;;1.47;1.00;;;11.20;98.20;;;;;;5100038;28;20862;-81
2022/04/29 06:12:39;;;;;;;1.43;1.00;;;11.40;98.20;;;;;;5097621;28;20463;-78
2022/04/29 06:15:08;;;;;;;1.43;1.00;;;11.40;98.20;;;;;;5100411;28;20541;-79
2022/04/29 06:17:35;;;;;;;1.47;1.00;;;11.40;97.70;;;;;;5095705;28;20467;-77
2022/04/29 06:20:02;;;;;;;1.40;1.10;;;11.50;98.20;;;;;;5107673;28;20499;-81
2022/04/29 06:22:29;;;;;;;1.43;1.00;;;11.60;97.40;;;;;;5090387;28;20464;-76
2022/04/29 06:24:56;;;;;;;1.47;1.00;;;11.60;97.50;;;;;;5090081;28;20468;-79
2022/04/29 06:27:23;;;;;;;1.47;1.00;;;11.80;98.10;;;;;;5096486;28;20460;-77
2022/04/29 06:29:52;;;;;;;1.50;1.10;;;11.90;97.80;;;;;;5098661;28;20563;-79
2022/04/29 06:32:19;;;;;;;1.50;1.00;;;12.00;98.00;;;;;;5096362;28;20506;-77
2022/04/29 06:34:48;;;;;;;1.43;1.00;;;12.00;97.90;;;;;;5091236;28;20549;-80
2022/04/29 06:37:16;;;;;;;1.47;1.00;;;12.10;97.80;;;;;;5090680;28;20464;-83
2022/04/29 06:39:43;;;;;;;1.47;1.00;;;12.10;97.40;;;;;;5098342;28;20492;-78
2022/04/29 06:42:10;;;;;;;1.50;1.10;;;12.10;97.80;;;;;;5100671;28;20452;-82
2022/04/29 06:44:38;;;;;;;1.50;1.00;;;12.20;98.10;;;;;;5092782;28;20436;-78
2022/04/29 06:47:07;;;;;;;2.80;1.53;;;12.30;98.00;;;;;;5091974;28;20556;-76
2022/04/29 06:49:33;;;;;;;1.50;1.00;;;12.50;98.10;;;;;;5093617;28;20464;-78
2022/04/29 06:52:02;;;;;;;1.50;1.10;;;12.60;97.20;;;;;;5107003;28;20461;-81
2022/04/29 06:54:29;;;;;;;1.47;1.00;;;12.70;96.70;;;;;;5097505;28;20575;-80
2022/04/29 06:56:56;;;;;;;1.50;1.10;;;12.80;96.10;;;;;;5099878;28;20552;-79
2022/04/29 06:59:23;;;;;;;1.50;1.00;;;12.90;95.20;;;;;;5097146;28;21014;-78
2022/04/29 07:01:50;;;;;;;1.50;1.00;;;12.90;95.10;;;;;;5099851;28;20480;-78
2022/04/29 07:04:18;;;;;;;1.47;1.00;;;13.00;95.00;;;;;;5096437;28;20548;-78
2022/04/29 07:06:45;;;;;;;1.50;1.00;;;13.00;95.00;;;;;;5092832;28;20537;-81
2022/04/29 07:09:12;;;;;;;1.50;1.00;;;13.10;94.70;;;;;;5098924;28;20494;-78
2022/04/29 07:11:39;;;;;;;1.50;1.00;;;13.30;94.50;;;;;;5093202;28;20513;-81
2022/04/29 07:14:08;;;;;;;1.50;1.00;;;13.40;94.80;;;;;;5101038;28;20464;-78
2022/04/29 07:16:34;;;;;;;1.50;1.00;;;13.50;94.40;;;;;;5090173;28;20477;-82
2022/04/29 07:19:02;;;;;;;1.50;1.00;;;13.70;94.30;;;;;;5095882;28;20484;-79
2022/04/29 07:21:30;;;;;;;1.50;1.00;;;13.90;93.20;;;;;;5105395;28;20495;-82
2022/04/29 07:23:57;;;;;;;1.50;1.03;;;14.10;93.20;;;;;;5100715;28;20518;-84
2022/04/29 07:26:24;;;;;;;1.50;1.00;;;14.20;92.50;;;;;;5097796;28;20453;-80
2022/04/29 07:28:51;;;;;;;1.50;0.90;;;14.40;91.90;;;;;;5097863;28;20449;-81
2022/04/29 07:31:18;;;;;;;1.40;1.00;;;14.60;92.30;;;;;;5096163;28;20481;-80
2022/04/29 07:33:44;;;;;;;1.47;1.00;;;14.80;90.50;;;;;;5099259;28;20903;-79
2022/04/29 07:41:47;;;;;;;1.43;0.93;;;15.30;87.90;;;;;;5099288;28;20470;-81
2022/04/29 07:44:15;;;;;;;1.50;1.03;;;15.40;87.70;;;;;;5100335;28;20457;-80
2022/04/29 07:46:45;;;;;;;1.47;1.00;;;15.50;88.10;;;;;;5093688;28;20450;-78
2022/04/29 07:49:13;;;;;;;1.60;1.43;;;15.60;87.40;;;;;;5095849;28;20476;-79
2022/04/29 07:51:40;;;;;;;1.40;0.90;;;15.70;87.40;;;;;;5109248;28;20472;-79
2022/04/29 07:54:09;;;;;;;1.50;1.00;;;15.70;87.50;;;;;;5099964;28;20572;-79
2022/04/29 07:56:36;;;;;;;1.50;1.00;;;15.80;87.20;;;;;;5098200;28;20481;-77
2022/04/29 07:59:04;;;;;;;1.50;0.90;;;15.90;87.40;;;;;;5098817;28;20464;-83
2022/04/29 08:01:30;;;;;;;1.43;0.90;;;15.90;87.10;;;;;;5098399;28;20488;-79
2022/04/29 08:03:58;;;;;;;1.47;0.90;;;15.90;87.40;;;;;;5099064;28;20980;-79
2022/04/29 08:06:26;;;;;;;1.50;0.90;;;15.90;87.10;;;;;;5084397;28;20528;-79
2022/04/29 08:08:53;;;;;;;1.47;0.90;;;16.00;85.70;;;;;;5108999;28;20517;-79
2022/04/29 08:11:21;;;;;;;1.47;0.90;;;16.00;86.00;;;;;;5095846;28;20580;-78
2022/04/29 08:13:48;;;;;;;1.47;1.00;;;16.10;86.20;;;;;;5089673;28;20460;-78
2022/04/29 08:16:15;;;;;;;1.50;0.97;;;16.10;86.80;;;;;;5089831;28;20516;-78
2022/04/29 08:18:43;;;;;;;1.50;1.00;;;16.20;85.00;;;;;;5103129;28;20460;-79
2022/04/29 08:21:10;;;;;;;1.47;0.90;;;16.20;86.00;;;;;;5106666;28;20479;-78
2022/04/29 08:23:36;;;;;;;1.43;0.90;;;16.20;86.50;;;;;;5097049;28;20471;-79
2022/04/29 08:26:03;;;;;;;1.50;1.10;;;16.30;86.40;;;;;;5093905;28;20450;-79
2022/04/29 08:28:32;;;;;;;1.43;0.90;;;16.30;85.80;;;;;;5100085;28;20472;-81
2022/04/29 08:30:59;;;;;;;1.50;1.20;;;16.30;86.30;;;;;;5098116;28;20549;-81
2022/04/29 08:33:26;;;;;;;1.43;0.90;;;16.20;87.00;;;;;;5098061;28;20960;-79
2022/04/29 08:35:53;;;;;;;1.50;1.00;;;16.20;87.00;;;;;;5105481;28;20480;-78
2022/04/29 08:38:20;;;;;;;1.50;1.00;;;16.20;87.20;;;;;;5093961;28;20492;-78
2022/04/29 08:40:48;;;;;;;1.70;1.20;;;16.30;87.10;;;;;;5094710;28;20476;-78
2022/04/29 08:43:17;;;;;;;1.50;1.00;;;16.40;86.40;;;;;;5091784;28;20469;-79
2022/04/29 08:45:45;;;;;;;1.43;0.90;;;16.40;86.90;;;;;;5111022;28;20485;-82
2022/04/29 08:48:12;;;;;;;1.47;0.90;;;16.40;87.00;;;;;;5096083;28;20460;-82
2022/04/29 08:50:39;;;;;;;1.47;0.90;;;16.50;87.00;;;;;;5107259;28;20493;-81
2022/04/29 08:53:07;;;;;;;1.50;0.90;;;16.50;86.80;;;;;;5097701;28;20452;-80
2022/04/29 09:01:06;;;;;;;1.43;0.90;;;16.50;86.80;;;;;;5096456;28;20482;-80
2022/04/29 09:03:34;;;;;;;1.43;0.90;;;16.50;86.40;;;;;;5097754;28;20463;-78
2022/04/29 09:06:02;;;;;;;1.47;0.90;;;16.60;87.00;;;;;;5098376;28;20471;-78
2022/04/29 09:08:32;;;;;;;1.47;0.90;;;16.70;86.50;;;;;;5099763;28;20455;-79
2022/04/29 09:11:02;;;;;;;1.50;0.90;;;16.70;86.30;;;;;;5098606;28;20552;-79
2022/04/29 09:13:30;;;;;;;1.47;0.90;;;16.80;85.60;;;;;;5098435;28;20587;-78
2022/04/29 09:15:59;;;;;;;1.50;1.00;;;16.80;85.70;;;;;;5098554;28;20493;-79
2022/04/29 09:18:37;;;;;;;2.53;2.33;;;16.80;85.70;;;;;;5100819;28;20468;-80
2022/04/29 09:21:09;;;;;;;1.47;1.00;;;16.80;85.70;;;;;;5097835;28;20524;-77
2022/04/29 09:23:38;;;;;;;1.50;0.90;;;16.90;85.10;;;;;;5100635;28;20455;-78
2022/04/29 09:26:07;;;;;;;1.50;1.10;;;16.80;85.20;;;;;;5093025;28;20456;-78
2022/04/29 09:28:35;;;;;;;1.43;0.90;;;16.90;85.20;;;;;;5102250;28;20872;-80
2022/04/29 09:31:04;;;;;;;1.50;0.90;;;17.00;84.80;;;;;;5106882;28;20476;-80
2022/04/29 09:33:32;;;;;;;1.50;0.90;;;17.10;84.90;;;;;;5097796;28;20857;-78
2022/04/29 09:36:00;;;;;;;1.50;0.90;;;17.10;84.20;;;;;;5096580;28;20549;-78
2022/04/29 09:41:22;;;;;;;1.47;0.90;;;17.10;84.30;;;;;;5094897;28;20473;-79
2022/04/29 09:43:49;;;;;;;1.60;0.90;;;17.30;84.10;;;;;;5098028;28;20460;-78
2022/04/29 09:46:19;;;;;;;1.47;0.90;;;17.50;84.50;;;;;;5097212;28;20537;-79
2022/04/29 09:49:00;;;;;;;1.50;0.90;;;17.80;82.70;;;;;;5107505;28;20455;-79
2022/04/29 09:51:55;;;;;;;1.43;0.90;;;17.90;81.90;;;;;;5092858;28;20797;-79
2022/04/29 09:54:25;;;;;;;1.50;0.90;;;18.10;82.30;;;;;;5052709;28;20475;-80
2022/04/29 09:57:09;;;;;;;1.47;0.90;;;18.40;81.10;;;;;;5100675;28;20472;-81
2022/04/29 09:59:38;;;;;;;1.50;0.90;;;18.50;80.80;;;;;;5106047;28;20455;-81
2022/04/29 10:02:06;;;;;;;1.50;0.90;;;18.50;79.30;;;;;;5100392;28;20532;-79
2022/04/29 10:04:34;;;;;;;1.50;0.90;;;18.50;80.00;;;;;;5101573;28;20560;-79
2022/04/29 10:07:05;;;;;;;1.50;0.90;;;18.40;80.20;;;;;;5100693;28;20460;-79
2022/04/29 10:09:34;;;;;;;1.50;0.90;;;18.40;79.20;;;;;;5098026;28;20460;-80
2022/04/29 10:12:03;;;;;;;1.47;0.90;;;18.40;80.10;;;;;;5087997;28;20626;-82
2022/04/29 10:14:31;;;;;;;1.70;1.47;;;18.30;80.10;;;;;;5105149;28;20690;-78
2022/04/29 10:22:38;;;;;;;1.63;1.53;;;18.30;79.60;;;;;;5097435;28;20465;-78
2022/04/29 10:25:09;;;;;;;1.47;0.90;;;18.50;80.30;;;;;;5102396;28;20465;-80
2022/04/29 10:27:38;;;;;;;2.33;1.40;;;18.40;78.60;;;;;;5095001;28;20456;-78
2022/04/29 10:30:07;;;;;;;1.47;1.00;;;18.40;79.50;;;;;;5102674;28;20483;-80
2022/04/29 10:33:01;;;;;;;1.50;1.00;;;18.40;79.20;;;;;;5095825;28;20491;-82
2022/04/29 10:35:49;;;;;;;1.50;0.90;;;18.50;79.40;;;;;;5102642;28;20468;-79
2022/04/29 10:38:19;;;;;;;1.50;0.90;;;18.60;79.10;;;;;;5092338;28;20529;-81
2022/04/29 10:41:12;;;;;;;1.50;0.90;;;18.90;79.30;;;;;;5099913;28;20484;-78
2022/04/29 10:43:43;;;;;;;1.50;0.90;;;19.10;77.90;;;;;;5104063;28;20551;-80
2022/04/29 10:46:21;;;;;;;1.50;0.90;;;19.20;78.50;;;;;;5100474;28;20503;-83
2022/04/29 10:48:49;;;;;;;2.63;2.33;;;19.40;76.80;;;;;;5095642;28;20991;-80
2022/04/29 10:51:18;;;;;;;1.47;0.90;;;19.50;76.60;;;;;;5098144;28;20857;-83
2022/04/29 10:53:48;;;;;;;1.50;1.03;;;19.60;76.60;;;;;;5102808;28;20835;-81
2022/04/29 10:56:36;;;;;;;1.47;0.90;;;19.60;76.20;;;;;;5099919;28;20453;-84
2022/04/29 10:59:18;;;;;;;1.50;0.90;;;19.70;76.70;;;;;;5094574;28;21092;-82
2022/04/29 11:01:50;;;;;;;1.47;0.90;;;19.70;75.80;;;;;;5093440;28;20449;-82
2022/04/29 11:04:44;;;;;;;1.43;0.90;;;19.60;75.90;;;;;;5110595;28;20625;-81
2022/04/29 11:07:37;;;;;;;1.47;0.90;;;19.50;75.80;;;;;;5105501;28;20520;-81
2022/04/29 11:10:10;;;;;;;1.70;1.00;;;19.30;76.10;;;;;;5081478;28;21121;-81
2022/04/29 11:12:39;;;;;;;1.47;0.90;;;19.30;77.60;;;;;;5086941;28;20472;-86
2022/04/29 11:15:14;;;;;;;1.47;0.90;;;19.40;77.40;;;;;;5094042;28;20491;-78
2022/04/29 11:17:44;;;;;;;1.50;1.20;;;19.40;76.70;;;;;;5105073;28;20480;-85
2022/04/29 11:20:21;;;;;;;2.10;1.90;;;19.50;76.80;;;;;;5109215;28;20860;-82
2022/04/29 11:25:53;;;;;;;1.50;0.90;;;19.70;75.20;;;;;;5101499;28;20451;-84
2022/04/29 11:28:22;;;;;;;1.50;1.10;;;19.70;75.20;;;;;;5104102;28;20670;-84
2022/04/29 11:30:50;;;;;;;1.47;0.90;;;19.80;75.40;;;;;;5101707;28;20475;-80
2022/04/29 11:33:23;;;;;;;1.47;0.90;;;19.80;74.90;;;;;;5101838;28;20498;-81
2022/04/29 11:35:53;;;;;;;1.50;0.90;;;19.80;75.50;;;;;;5100055;28;20452;-85
2022/04/29 11:38:21;;;;;;;1.50;0.90;;;19.90;74.50;;;;;;5101676;28;20672;-79
2022/04/29 11:40:49;;;;;;;1.47;0.90;;;20.10;75.40;;;;;;5101748;28;20520;-83
2022/04/29 11:43:50;;;;;;;1.43;0.90;;;20.20;74.50;;;;;;5113143;28;20478;-84
2022/04/29 11:46:37;;;;;;;1.47;0.90;;;20.10;74.70;;;;;;5111973;28;20475;-83
2022/04/29 11:49:11;;;;;;;1.50;1.20;;;20.10;75.30;;;;;;5106687;28;20478;-83
2022/04/29 11:51:42;;;;;;;1.50;0.90;;;20.10;75.30;;;;;;5108730;28;20535;-82
2022/04/29 11:54:31;;;;;;;1.43;0.90;;;20.20;74.00;;;;;;5100684;28;20552;-80
2022/04/29 11:56:59;;;;;;;1.43;0.90;;;20.10;73.20;;;;;;5107589;28;20459;-81
2022/04/29 11:59:29;;;;;;;1.50;0.90;;;20.00;74.40;;;;;;5106266;28;21059;-82
2022/04/29 12:01:57;;;;;;;1.43;0.90;;;20.00;73.00;;;;;;5095805;28;20475;-82
2022/04/29 12:04:26;;;;;;;1.47;0.90;;;20.00;72.60;;;;;;5103971;28;20500;-82
2022/04/29 12:06:57;;;;;;;1.47;0.90;;;20.00;73.90;;;;;;5104134;28;20507;-84
2022/04/29 12:09:31;;;;;;;1.50;0.90;;;20.00;74.50;;;;;;5098428;28;20901;-79
2022/04/29 12:15:10;;;;;;;1.50;0.90;;;20.10;75.30;;;;;;5092125;28;20536;-80
2022/04/29 12:17:39;;;;;;;1.47;0.90;;;20.20;74.60;;;;;;5091085;28;20573;-80
2022/04/29 12:20:08;;;;;;;1.47;0.90;;;20.10;74.30;;;;;;5103076;28;20633;-80
2022/04/29 12:22:37;;;;;;;1.50;0.90;;;20.10;73.50;;;;;;5086719;28;20503;-80
2022/04/29 12:25:37;;;;;;;1.47;0.90;;;20.00;74.20;;;;;;5100877;28;20461;-80
2022/04/29 12:28:20;;;;;;;1.50;0.90;;;20.00;74.40;;;;;;5101994;28;20547;-80
2022/04/29 12:36:50;;;;;;;1.50;0.90;;;20.10;74.50;;;;;;5093713;28;20456;-80
2022/04/29 12:39:24;;;;;;;1.40;0.93;;;20.10;74.80;;;;;;5089147;28;20564;-81
2022/04/29 12:42:01;;;;;;;1.50;1.00;;;19.90;74.10;;;;;;5096371;28;20461;-80
2022/04/29 12:45:06;;;;;;;1.47;0.90;;;19.80;74.50;;;;;;5098428;28;20460;-80
2022/04/29 12:47:44;;;;;;;1.47;0.90;;;19.80;74.00;;;;;;5098267;28;20490;-80
2022/04/29 12:50:28;;;;;;;3.90;3.60;;;19.50;74.30;;;;;;5241572;22;20492;-79
2022/04/29 12:53:21;;;;;;;1.50;0.90;;;19.50;74.40;;;;;;5084232;28;20459;-80
2022/04/29 12:56:00;;;;;;;1.47;0.90;;;19.30;73.70;;;;;;5083761;28;20475;-80
2022/04/29 12:58:28;;;;;;;3.60;1.73;;;19.00;73.50;;;;;;5109690;28;20471;-80
2022/04/29 13:01:14;;;;;;;1.40;0.90;;;18.90;74.00;;;;;;5091531;28;20472;-79
2022/04/29 13:03:50;;;;;;;1.47;0.90;;;18.80;74.90;;;;;;5088546;28;20490;-80
2022/04/29 13:06:20;;;;;;;1.50;0.90;;;18.70;74.80;;;;;;5085083;28;20591;-81
2022/04/29 13:08:53;;;;;;;1.50;0.90;;;18.70;76.20;;;;;;5089901;28;20499;-80
2022/04/29 13:11:21;;;;;;;1.47;0.90;;;18.60;74.00;;;;;;5094998;28;20488;-79
2022/04/29 13:13:49;;;;;;;1.43;0.90;;;18.40;75.20;;;;;;5087040;28;20480;-80
2022/04/29 13:16:22;;;;;;;1.40;0.90;;;18.50;76.00;;;;;;5088966;28;20536;-80
2022/04/29 13:18:49;;;;;;;1.47;0.90;;;18.40;75.10;;;;;;5093708;28;20457;-80
2022/04/29 13:21:17;;;;;;;1.43;0.90;;;18.40;74.30;;;;;;5096950;28;20476;-80
2022/04/29 13:23:46;;;;;;;1.50;0.90;;;18.40;75.30;;;;;;5086114;28;20493;-80
2022/04/29 13:26:14;;;;;;;1.43;0.90;;;18.40;75.70;;;;;;5090531;28;20854;-80
2022/04/29 13:28:42;;;;;;;1.47;1.00;;;18.30;74.80;;;;;;5101417;28;20445;-80
2022/04/29 13:31:09;;;;;;;1.43;0.90;;;18.20;75.40;;;;;;5090539;28;20571;-79
2022/04/29 13:33:38;;;;;;;1.47;0.90;;;18.20;75.60;;;;;;5104378;28;20910;-80
2022/04/29 13:36:08;;;;;;;1.50;1.00;;;18.10;76.10;;;;;;5090377;28;20492;-81